Pacific Dawn — 2AGH7 — position and weather

sailwx.info

Track history (hours):
 
Tides and Currents Weather Stations Pressure Air Temp Water Temp Dewpoint Dewpoint Depression Visibility Wind Speed Wind Dir Waves Ship Positions

Pacific Dawn

Last reported at 2017-Aug-22 12:00 UTC. Time now 2017-Aug-24 01:11 UTC.
Position S 19°30' E 167°30'.

Length 245 m; draft 8.3 m.

Type: Passenger vessel. MMSI: 235059368.

Wind from 130 at 26 knots

Barometer 1018.0 mb
Air temperature 22.0 ° C
Visibility: greater than 10.8 NM
Dewpoint 15.3 ° C
Water temperature 26.0 ° C

Date/timePositionNaut miles runAvg speedWind from/ knotsBaromVisibWave heightAir tempDewpointWater temp
2017-Aug-22 12:00S 19°30' E 167°30'178 7.3 130 / 261018.010.8 22.015.326.0
2017-Aug-21 11:37S 22°24' E 166°47'318.3
2017-Aug-21 11:27S 22°23' E 166°44'818.0
2017-Aug-21 11:00S 22°22' E 166°35'917.7
2017-Aug-21 10:30S 22°19' E 166°26'3 6.0
2017-Aug-21 10:00S 22°16' E 166°26'0 0.0
2017-Aug-21 09:29S 22°16' E 166°26'0 0.0
2017-Aug-21 08:59S 22°16' E 166°26'0 0.0
2017-Aug-21 08:29S 22°16' E 166°26'0 0.0
2017-Aug-21 07:59S 22°16' E 166°26'0 0.0
2017-Aug-21 07:29S 22°16' E 166°26'0 0.0
2017-Aug-21 06:59S 22°16' E 166°26'0 0.0
2017-Aug-21 06:29S 22°16' E 166°26'0 0.0
2017-Aug-21 05:59S 22°16' E 166°26'0 0.0
2017-Aug-21 05:29S 22°16' E 166°26'0 0.0
2017-Aug-21 04:56S 22°16' E 166°26'0 0.0
2017-Aug-21 04:29S 22°16' E 166°26'0 0.0
2017-Aug-21 03:59S 22°16' E 166°26'1 1.7
2017-Aug-21 03:31S 22°17' E 166°26'713.9
2017-Aug-21 03:00S 22°19' E 166°18'713.7
2017-Aug-21 02:30S 22°24' E 166°13'28818.6
2017-Aug-20 11:00S 24°00' E 161°18'41017.8 200 / 331014.110.8 18.010.624.5
2017-Aug-19 12:00S 26°18' E 154°12'5417.8 240 / 251016.310.8 18.0 5.824.2
2017-Aug-19 08:58S 26°39' E 153°17'1112.3
2017-Aug-19 08:05S 26°48' E 153°10'114.7
2017-Aug-19 08:01S 26°49' E 153°09'714.5
2017-Aug-19 07:30S 26°56' E 153°12'815.5
2017-Aug-19 07:01S 27°03' E 153°16'714.6
2017-Aug-19 06:30S 27°09' E 153°21'815.1
2017-Aug-19 06:00S 27°16' E 153°17'815.0
2017-Aug-19 05:30S 27°21' E 153°11'3 4.8
2017-Aug-19 04:59S 27°23' E 153°10'0 0.0
2017-Aug-19 04:29S 27°23' E 153°10'0 0.0
2017-Aug-19 03:59S 27°23' E 153°10'0 0.0
2017-Aug-19 03:29S 27°23' E 153°10'0 0.0
2017-Aug-19 02:59S 27°23' E 153°10'0 0.0
2017-Aug-19 02:29S 27°23' E 153°10'0 0.0
2017-Aug-19 01:59S 27°23' E 153°10'0 0.0
2017-Aug-19 01:29S 27°23' E 153°10'0 0.0
2017-Aug-19 00:59S 27°23' E 153°10'0 0.0
2017-Aug-19 00:29S 27°23' E 153°10'0 0.0
2017-Aug-18 23:59S 27°23' E 153°10'0 0.0
2017-Aug-18 23:29S 27°23' E 153°10'0 0.0
2017-Aug-18 22:59S 27°23' E 153°10'0 0.0
2017-Aug-18 22:23S 27°23' E 153°10'0 0.0
2017-Aug-18 21:59S 27°23' E 153°10'0 0.0
2017-Aug-18 21:29S 27°23' E 153°10'0 0.0
2017-Aug-18 20:59S 27°23' E 153°10'0 0.0
2017-Aug-18 20:29S 27°23' E 153°10'0 0.0
2017-Aug-18 19:59S 27°23' E 153°10'0 0.0
2017-Aug-18 19:29S 27°23' E 153°10'0 0.0
2017-Aug-18 18:59S 27°23' E 153°10'0 0.5
2017-Aug-18 18:30S 27°23' E 153°10'4 8.3
2017-Aug-18 18:00S 27°20' E 153°12'714.7
2017-Aug-18 17:30S 27°15' E 153°19'815.4
2017-Aug-18 17:00S 27°08' E 153°21'816.5
2017-Aug-18 16:30S 27°01' E 153°15'917.3
2017-Aug-18 16:00S 26°54' E 153°11'1112.8
2017-Aug-18 15:11S 26°43' E 153°11'213.7
2017-Aug-18 15:00S 26°42' E 153°13'48217.8
2017-Aug-17 12:00S 21°48' E 160°12'43217.3 300 / 61016.410.8 22.013.425.2
2017-Aug-16 11:00S 18°00' E 166°42'211 5.0 090 / 181014.910.8 23.016.527.0
2017-Aug-14 17:00S 21°30' E 167°00'5510.4 140 / 151014.910.8 21.016.025.4
2017-Aug-14 11:41S 22°24' E 166°47'417.6
2017-Aug-14 11:27S 22°23' E 166°43'818.0
2017-Aug-14 11:01S 22°22' E 166°34'917.4
2017-Aug-14 10:31S 22°19' E 166°25'3 5.3
2017-Aug-14 10:00S 22°16' E 166°26'0 0.0
2017-Aug-14 09:30S 22°16' E 166°26'0 0.0
2017-Aug-14 09:00S 22°16' E 166°26'0 0.0
2017-Aug-14 08:30S 22°16' E 166°26'0 0.0
2017-Aug-14 07:57S 22°16' E 166°26'0 0.0
2017-Aug-14 07:30S 22°16' E 166°26'0 0.0
2017-Aug-14 07:00S 22°16' E 166°26'0 0.0
2017-Aug-14 06:30S 22°16' E 166°26'0 0.0
2017-Aug-14 06:00S 22°16' E 166°26'0 0.0
2017-Aug-14 05:30S 22°16' E 166°26'0 0.0
2017-Aug-14 05:00S 22°16' E 166°26'0 0.0
2017-Aug-14 04:30S 22°16' E 166°26'0 0.0
2017-Aug-14 04:00S 22°16' E 166°26'2 3.4
2017-Aug-14 03:30S 22°17' E 166°25'815.9
2017-Aug-14 03:00S 22°20' E 166°17'714.0
2017-Aug-14 02:30S 22°25' E 166°11'61618.4
2017-Aug-12 17:00S 25°54' E 155°36'6117.6 310 / 151019.010.8 21.016.024.6
2017-Aug-12 13:29S 26°16' E 154°32'918.1
2017-Aug-12 12:58S 26°20' E 154°22'818.1
2017-Aug-12 12:30S 26°22' E 154°14'917.6
2017-Aug-12 12:00S 26°26' E 154°04'  
Track history (hours):
 
Tides and Currents Weather Stations Pressure Air Temp Water Temp Dewpoint Dewpoint Depression Visibility Wind Speed Wind Dir Waves Ship Positions

Pacific Dawn

Last reported at 2017-Aug-22 12:00 UTC. Time now 2017-Aug-24 01:11 UTC.
Position S 19°30' E 167°30'.

Length 245 m; draft 8.3 m.

Type: Passenger vessel. MMSI: 235059368.

Wind from 130 at 26 knots

Barometer 1018.0 mb
Air temperature 22.0 ° C
Visibility: greater than 10.8 NM
Dewpoint 15.3 ° C
Water temperature 26.0 ° C

Date/timePositionNaut miles runAvg speedWind from/ knotsBaromVisibWave heightAir tempDewpointWater temp
2017-Aug-22 12:00S 19°30' E 167°30'178 7.3 130 / 261018.010.8 22.015.326.0
2017-Aug-21 11:37S 22°24' E 166°47'318.3
2017-Aug-21 11:27S 22°23' E 166°44'818.0
2017-Aug-21 11:00S 22°22' E 166°35'917.7
2017-Aug-21 10:30S 22°19' E 166°26'3 6.0
2017-Aug-21 10:00S 22°16' E 166°26'0 0.0
2017-Aug-21 09:29S 22°16' E 166°26'0 0.0
2017-Aug-21 08:59S 22°16' E 166°26'0 0.0
2017-Aug-21 08:29S 22°16' E 166°26'0 0.0
2017-Aug-21 07:59S 22°16' E 166°26'0 0.0
2017-Aug-21 07:29S 22°16' E 166°26'0 0.0
2017-Aug-21 06:59S 22°16' E 166°26'0 0.0
2017-Aug-21 06:29S 22°16' E 166°26'0 0.0
2017-Aug-21 05:59S 22°16' E 166°26'0 0.0
2017-Aug-21 05:29S 22°16' E 166°26'0 0.0
2017-Aug-21 04:56S 22°16' E 166°26'0 0.0
2017-Aug-21 04:29S 22°16' E 166°26'0 0.0
2017-Aug-21 03:59S 22°16' E 166°26'1 1.7
2017-Aug-21 03:31S 22°17' E 166°26'713.9
2017-Aug-21 03:00S 22°19' E 166°18'713.7
2017-Aug-21 02:30S 22°24' E 166°13'28818.6
2017-Aug-20 11:00S 24°00' E 161°18'41017.8 200 / 331014.110.8 18.010.624.5
2017-Aug-19 12:00S 26°18' E 154°12'5417.8 240 / 251016.310.8 18.0 5.824.2
2017-Aug-19 08:58S 26°39' E 153°17'1112.3
2017-Aug-19 08:05S 26°48' E 153°10'114.7
2017-Aug-19 08:01S 26°49' E 153°09'714.5
2017-Aug-19 07:30S 26°56' E 153°12'815.5
2017-Aug-19 07:01S 27°03' E 153°16'714.6
2017-Aug-19 06:30S 27°09' E 153°21'815.1
2017-Aug-19 06:00S 27°16' E 153°17'815.0
2017-Aug-19 05:30S 27°21' E 153°11'3 4.8
2017-Aug-19 04:59S 27°23' E 153°10'0 0.0
2017-Aug-19 04:29S 27°23' E 153°10'0 0.0
2017-Aug-19 03:59S 27°23' E 153°10'0 0.0
2017-Aug-19 03:29S 27°23' E 153°10'0 0.0
2017-Aug-19 02:59S 27°23' E 153°10'0 0.0
2017-Aug-19 02:29S 27°23' E 153°10'0 0.0
2017-Aug-19 01:59S 27°23' E 153°10'0 0.0
2017-Aug-19 01:29S 27°23' E 153°10'0 0.0
2017-Aug-19 00:59S 27°23' E 153°10'0 0.0
2017-Aug-19 00:29S 27°23' E 153°10'0 0.0
2017-Aug-18 23:59S 27°23' E 153°10'0 0.0
2017-Aug-18 23:29S 27°23' E 153°10'0 0.0
2017-Aug-18 22:59S 27°23' E 153°10'0 0.0
2017-Aug-18 22:23S 27°23' E 153°10'0 0.0
2017-Aug-18 21:59S 27°23' E 153°10'0 0.0
2017-Aug-18 21:29S 27°23' E 153°10'0 0.0
2017-Aug-18 20:59S 27°23' E 153°10'0 0.0
2017-Aug-18 20:29S 27°23' E 153°10'0 0.0
2017-Aug-18 19:59S 27°23' E 153°10'0 0.0
2017-Aug-18 19:29S 27°23' E 153°10'0 0.0
2017-Aug-18 18:59S 27°23' E 153°10'0 0.5
2017-Aug-18 18:30S 27°23' E 153°10'4 8.3
2017-Aug-18 18:00S 27°20' E 153°12'714.7
2017-Aug-18 17:30S 27°15' E 153°19'815.4
2017-Aug-18 17:00S 27°08' E 153°21'816.5
2017-Aug-18 16:30S 27°01' E 153°15'917.3
2017-Aug-18 16:00S 26°54' E 153°11'1112.8
2017-Aug-18 15:11S 26°43' E 153°11'213.7
2017-Aug-18 15:00S 26°42' E 153°13'48217.8
2017-Aug-17 12:00S 21°48' E 160°12'43217.3 300 / 61016.410.8 22.013.425.2
2017-Aug-16 11:00S 18°00' E 166°42'211 5.0 090 / 181014.910.8 23.016.527.0
2017-Aug-14 17:00S 21°30' E 167°00'5510.4 140 / 151014.910.8 21.016.025.4
2017-Aug-14 11:41S 22°24' E 166°47'417.6
2017-Aug-14 11:27S 22°23' E 166°43'818.0
2017-Aug-14 11:01S 22°22' E 166°34'917.4
2017-Aug-14 10:31S 22°19' E 166°25'3 5.3
2017-Aug-14 10:00S 22°16' E 166°26'0 0.0
2017-Aug-14 09:30S 22°16' E 166°26'0 0.0
2017-Aug-14 09:00S 22°16' E 166°26'0 0.0
2017-Aug-14 08:30S 22°16' E 166°26'0 0.0
2017-Aug-14 07:57S 22°16' E 166°26'0 0.0
2017-Aug-14 07:30S 22°16' E 166°26'0 0.0
2017-Aug-14 07:00S 22°16' E 166°26'0 0.0
2017-Aug-14 06:30S 22°16' E 166°26'0 0.0
2017-Aug-14 06:00S 22°16' E 166°26'0 0.0
2017-Aug-14 05:30S 22°16' E 166°26'0 0.0
2017-Aug-14 05:00S 22°16' E 166°26'0 0.0
2017-Aug-14 04:30S 22°16' E 166°26'0 0.0
2017-Aug-14 04:00S 22°16' E 166°26'2 3.4
2017-Aug-14 03:30S 22°17' E 166°25'815.9
2017-Aug-14 03:00S 22°20' E 166°17'714.0
2017-Aug-14 02:30S 22°25' E 166°11'61618.4
2017-Aug-12 17:00S 25°54' E 155°36'6117.6 310 / 151019.010.8 21.016.024.6
2017-Aug-12 13:29S 26°16' E 154°32'918.1
2017-Aug-12 12:58S 26°20' E 154°22'818.1
2017-Aug-12 12:30S 26°22' E 154°14'917.6
2017-Aug-12 12:00S 26°26' E 154°04'  

Dump ship's entire track history